Weather reports worldwide

Advertisment
Fichtelberg, Germany (10578): temperature & dewpoint: 10.01.2021 05:00:00 - 16.01.2021 05:00:00 (CET)Fichtelberg, Germany (10578): temperature 5cm & temperature -5cm: 10.01.2021 05:00:00 - 16.01.2021 05:00:00 (CET)Fichtelberg, Germany (10578): temperature -20cm & temperature -100cm: 10.01.2021 05:00:00 - 16.01.2021 05:00:00 (CET)Fichtelberg, Germany (10578): wind speed & gusts: 10.01.2021 05:00:00 - 16.01.2021 05:00:00 (CET)Fichtelberg, Germany (10578): wind direction: 10.01.2021 05:00:00 - 16.01.2021 05:00:00 (CET)Fichtelberg, Germany (10578): visibility: 10.01.2021 05:00:00 - 16.01.2021 05:00:00 (CET)Fichtelberg, Germany (10578): sunshine duration: 10.01.2021 05:00:00 - 16.01.2021 05:00:00 (CET)Fichtelberg, Germany (10578): precipitation: 10.01.2021 05:00:00 - 16.01.2021 05:00:00 (CET)
Date & Time tt [°C] td [°C] tt 5cm [°C] tt -5cm [°C] tt -20cm [°C] tt -100cm [°C] ff [km/h] ff [kn] fx [km/h] fx [kn] dd vv [km] sd [min] rr [mm]
16.01.2021 05:00:00 -11,5 -12,7 -1,2 0,1 0,7 3,2 46 25 64 35 NW 0,3 0 0,1
16.01.2021 04:00:00 -11,3 -12,4 -1,1 0,1 0,8 3,2 44 24 60 32 NW 0,2 0 0,0
16.01.2021 03:00:00 -11,3 -12,5 -1,1 0,1 0,8 3,2 46 25 58 31 NW 0,6 0 0,2
16.01.2021 02:00:00 -10,8 -11,9 -1,1 0,1 0,8 3,2 41 22 56 31 NW 0,5 0 0,2
16.01.2021 01:00:00 -10,5 -11,6 -1,0 0,1 0,8 3,2 43 23 54 29 NW 0,1 0 0,1
16.01.2021 00:00:00 -10,2 -11,2 -1,0 0,1 0,8 3,2 36 20 48 26 NW 0,1 0 0,2
15.01.2021 23:00:00 -10,1 -11,1 -1,0 0,1 0,8 3,2 38 20 54 29 NW 0,1 0 0,1
15.01.2021 22:00:00 -9,8 -10,9 -1,0 0,1 0,8 3,2 45 24 55 30 NW 0,1 0 0,3
15.01.2021 21:00:00 -9,5 -10,5 -1,0 0,1 0,8 3,2 40 22 53 29 NNW 0,1 0 0,4
15.01.2021 20:00:00 -9,0 -10,0 -0,9 0,1 0,8 3,2 35 19 64 34 NNW 0,2 0 0,4
15.01.2021 19:00:00 -8,9 -9,9 -0,9 0,1 0,8 3,2 44 24 68 37 NNW 0,1 0 0,1
15.01.2021 18:00:00 -8,6 -9,5 -0,9 0,1 0,8 3,2 45 25 62 33 NNW 0,1 0 0,2
15.01.2021 17:00:00 -8,7 -9,7 -0,8 0,1 0,8 3,2 51 28 71 39 NW 0,2 0 0,3
15.01.2021 16:00:00 -8,7 -9,7 -0,8 0,1 0,8 3,2 48 26 66 36 NNW 0,2 0 0,2
15.01.2021 15:00:00 -8,4 -9,3 -0,8 0,1 0,8 3,2 45 25 66 36 NNW 0,1 0 0,2
15.01.2021 14:00:00 -8,1 -9,0 -0,9 0,1 0,8 3,2 50 27 66 36 NNW 0,2 0 0,3
15.01.2021 13:00:00 -7,6 -8,5 -0,9 0,1 0,8 3,2 44 24 61 33 NNW 0,2 0 0,4
15.01.2021 12:00:00 -6,8 -7,5 -0,9 0,1 0,8 3,2 30 16 49 26 NNW 0,2 0 0,4
15.01.2021 11:00:00 -6,4 -7,0 -0,9 0,1 0,8 3,2 26 14 35 19 NNW 0,1 0 0,2
15.01.2021 10:00:00 -6,7 -7,2 -0,9 0,1 0,8 3,2 26 14 38 21 NNW 0,1 0 0,2
15.01.2021 09:00:00 -6,9 -7,4 -0,9 0,1 0,8 3,2 25 14 34 19 NNW 0,1 0 0,0
15.01.2021 08:00:00 -7,1 -7,7 -0,9 0,1 0,8 3,2 21 11 31 17 NNW 0,1 0 0,0
15.01.2021 07:00:00 -7,1 -7,6 -0,9 0,1 0,8 3,2 18 10 30 16 NNW 0,1 0 0,0
15.01.2021 06:00:00 -7,0 -7,6 -0,9 0,1 0,8 3,2 19 10 28 15 NNW 0,1 0 0,0
15.01.2021 05:00:00 -7,0 -7,5 -0,9 0,1 0,8 3,2 14 7 22 12 NNW 0,1 0 0,1
15.01.2021 04:00:00 -7,0 -7,5 -0,9 0,1 0,8 3,2 14 7 23 12 NW 0,1 0 0,0
15.01.2021 03:00:00 -7,0 -7,5 -0,9 0,1 0,8 3,2 15 8 28 15 NNW 0,1 0 0,0
15.01.2021 02:00:00 -7,1 -7,6 -0,9 0,1 0,8 3,2 20 11 29 15 NNW 0,1 0 0,0
15.01.2021 01:00:00 -7,3 -7,8 -0,9 0,1 0,8 3,2 21 11 36 19 NNW 0,1 0 0,1
15.01.2021 00:00:00 -7,5 -8,1 -0,9 0,1 0,8 3,2 27 14 34 18 NW 0,1 0 0,0
14.01.2021 23:00:00 -7,6 -8,3 -0,9 0,1 0,8 3,2 24 13 36 19 NW 0,1 0 0,0
14.01.2021 22:00:00 -7,6 -8,3 -0,9 0,1 0,8 3,2 23 12 39 21 NW 0,1 0 0,0
14.01.2021 21:00:00 -7,4 -8,1 -0,9 0,1 0,8 3,2 26 14 49 27 NNW 0,1 0 0,0
14.01.2021 20:00:00 -7,3 -8,1 -0,9 0,1 0,8 3,2 35 19 49 26 NNW 0,3 0 0,0
14.01.2021 19:00:00 -6,9 -7,7 -0,9 0,1 0,8 3,2 34 18 48 26 NNW 0,2 0 0,0
14.01.2021 18:00:00 -6,6 -7,3 -0,9 0,1 0,8 3,2 34 18 52 28 NNW 0,1 0 0,1
14.01.2021 17:00:00 -6,5 -7,1 -0,9 0,2 0,8 3,2 23 12 49 26 NNW 0,2 0 0,0
14.01.2021 16:00:00 -6,6 -7,3 -0,9 0,2 0,8 3,2 34 19 51 28 NNW 0,1 0 0,0
14.01.2021 15:00:00 -6,4 -7,1 -0,9 0,2 0,8 3,2 34 19 46 25 NNW 0,1 0 0,2
14.01.2021 14:00:00 -6,3 -6,9 -0,9 0,2 0,8 3,2 30 16 48 26 NNW 0,1 0 0,0
14.01.2021 13:00:00 -6,4 -7,0 -0,9 0,2 0,8 3,2 34 18 51 27 NNW 0,1 0 0,2
14.01.2021 12:00:00 -6,6 -7,2 -0,9 0,2 0,8 3,2 40 22 58 32 NNW 0,1 0 0,0
14.01.2021 11:00:00 -6,8 -7,6 -0,8 0,2 0,8 3,2 44 24 63 34 NNW 0,2 0 0,1
14.01.2021 10:00:00 -7,0 -7,8 -0,8 0,2 0,8 3,2 46 25 73 39 NNW 0,2 0 0,5
14.01.2021 09:00:00 -6,9 -7,7 -0,7 0,2 0,8 3,2 54 29 72 39 NW 0,1 0 1,3
14.01.2021 08:00:00 -7,2 -8,0 -0,7 0,2 0,8 3,2 56 30 80 43 NW 0,3 0 1,9
14.01.2021 07:00:00 -7,7 -8,6 -0,6 0,2 0,8 3,2 64 35 88 47 NW 0,3 0 2,2
14.01.2021 06:00:00 -7,8 -8,7 -0,6 0,2 0,8 3,2 59 32 92 50 WNW 0,3 0 2,5
14.01.2021 05:00:00 -7,8 -8,6 -0,6 0,2 0,8 3,2 61 33 91 49 WNW 0,4 0 0,7
14.01.2021 04:00:00 -7,8 -8,7 -0,6 0,2 0,8 3,2 58 31 94 51 WNW 0,3 0 0,0
14.01.2021 03:00:00 -7,7 -8,6 -0,6 0,2 0,8 3,2 58 31 94 51 WNW 1,0 0 0,1
14.01.2021 02:00:00 -7,4 -8,3 -0,6 0,2 0,8 3,2 61 33 91 49 NW 1,1 0 0,1
14.01.2021 01:00:00 -6,8 -7,7 -0,6 0,2 0,8 3,2 58 31 91 49 WNW 0,3 0 0,1
14.01.2021 00:00:00 -6,2 -7,0 -0,6 0,2 0,8 3,2 61 33 103 55 WNW 0,2 0 1,4
13.01.2021 23:00:00 -5,8 -6,5 -0,6 0,2 0,8 3,2 79 43 103 55 W 0,4 0 0,3
13.01.2021 22:00:00 -6,0 -6,8 -0,6 0,2 0,8 3,2 70 38 100 54 W 0,3 0 0,2
13.01.2021 21:00:00 -6,0 -6,7 -0,6 0,2 0,8 3,2 66 36 99 53 W 0,6 0 0,0
13.01.2021 20:00:00 -6,1 -6,8 -0,6 0,2 0,8 3,2 64 35 82 44 W 0,4 0 0,0
13.01.2021 19:00:00 -6,4 -7,2 -0,6 0,2 0,8 3,2 59 32 91 49 W 16 0 0,0
13.01.2021 18:00:00 -6,4 -7,2 -0,6 0,2 0,8 3,2 61 33 84 45 W 8 0 0,0
13.01.2021 17:00:00 -6,1 -6,9 -0,6 0,2 0,8 3,2 64 34 86 46 W 4,6 0 0,0
13.01.2021 16:00:00 -5,8 -6,5 -0,6 0,2 0,8 3,2 58 31 88 47 W 0,1 0 0,1
13.01.2021 15:00:00 -5,5 -6,2 -0,6 0,2 0,8 3,2 64 35 85 46 W 0,1 0 0,1
13.01.2021 14:00:00 -5,6 -6,3 -0,6 0,2 0,8 3,2 64 35 87 47 W 0,2 0 0,3
13.01.2021 13:00:00 -5,8 -6,5 -0,6 0,2 0,8 3,2 60 33 89 48 W 0,1 0 0,1
13.01.2021 12:00:00 -5,8 -6,5 -0,6 0,2 0,8 3,2 54 29 96 52 W 0,2 0 0,4
13.01.2021 11:00:00 -6,0 -6,7 -0,6 0,2 0,8 3,2 53 29 76 41 W 0,2 0 0,6
13.01.2021 10:00:00 -6,1 -6,8 -0,6 0,2 0,8 3,2 45 25 74 40 W 0,3 0 0,2
13.01.2021 09:00:00 -6,0 -6,7 -0,6 0,2 0,8 3,2 47 26 74 40 WNW 0,2 0 0,3
13.01.2021 08:00:00 -6,2 -6,9 -0,5 0,2 0,8 3,2 45 24 79 42 WNW 0,1 0 0,7
13.01.2021 07:00:00 -6,2 -6,9 -0,5 0,2 0,8 3,2 50 27 75 40 WNW 0,2 0 0,6
13.01.2021 06:00:00 -6,2 -7,0 -0,5 0,2 0,8 3,2 52 28 81 44 WNW 0,2 0 0,0
13.01.2021 05:00:00 -6,2 -6,9 -0,5 0,2 0,8 3,2 44 24 71 38 WNW 0,2 0 0,0
13.01.2021 04:00:00 -6,2 -7,0 -0,5 0,2 0,8 3,2 52 28 76 41 WNW 0,2 0 0,0
13.01.2021 03:00:00 -6,1 -6,8 -0,5 0,2 0,8 3,2 54 29 80 43 WNW 0,2 0 0,0
13.01.2021 02:00:00 -5,9 -6,6 -0,5 0,2 0,8 3,2 53 29 72 39 WNW 0,1 0 0,0
13.01.2021 01:00:00 -5,9 -6,6 -0,5 0,2 0,8 3,2 51 27 84 46 WNW 0,3 0 0,0
13.01.2021 00:00:00 -5,9 -6,6 -0,4 0,1 0,8 3,2 50 27 87 47 WNW 0,3 0 0,0
12.01.2021 23:00:00 -6,1 -7,0 -0,4 0,1 0,8 3,2 60 33 92 50 NW 1,4 0 0,1
12.01.2021 22:00:00 -5,0 -5,6 -0,4 0,2 0,8 3,2 56 31 86 46 WNW 0,2 0 0,1
12.01.2021 21:00:00 -5,3 -6,0 -0,4 0,1 0,8 3,2 48 26 76 41 WNW 0,2 0 0,1
12.01.2021 20:00:00 -5,3 -6,1 -0,4 0,1 0,8 3,2 59 32 78 42 WNW 0,3 0 0,6
12.01.2021 19:00:00 -4,4 -5,1 -0,4 0,2 0,8 3,2 53 28 79 43 NW 0,3 0 1,0
12.01.2021 18:00:00 -3,8 -4,4 -0,4 0,2 0,8 3,2 59 32 79 43 WNW 0,2 0 1,4
12.01.2021 17:00:00 -4,1 -4,7 -0,4 0,2 0,8 3,2 60 33 80 43 W 0,2 0 1,4
12.01.2021 16:00:00 -4,3 -4,9 -0,4 0,2 0,8 3,2 55 30 83 45 W 0,7 0 0,6
12.01.2021 15:00:00 -4,3 -5,0 -0,4 0,1 0,8 3,2 64 35 86 47 W 0,6 0 0,9
12.01.2021 14:00:00 -4,6 -5,2 -0,4 0,1 0,8 3,2 65 35 90 49 W 0,5 0 0,3
12.01.2021 13:00:00 -5,0 -5,7 -0,4 0,1 0,8 3,2 68 37 90 49 W 0,6 0 0,5
12.01.2021 12:00:00 -5,3 -6,1 -0,4 0,1 0,8 3,2 71 39 96 52 W 0,6 0 0,6
12.01.2021 11:00:00 -5,7 -6,5 -0,4 0,1 0,8 3,2 74 40 98 53 W 0,5 0 0,6
12.01.2021 10:00:00 -6,0 -6,8 -0,3 0,1 0,8 3,2 74 40 97 53 WSW 0,7 0 0,5
12.01.2021 09:00:00 -6,5 -7,3 -0,3 0,1 0,8 3,2 71 38 95 51 WSW 0,9 0 0,3
12.01.2021 08:00:00 -6,8 -7,7 -0,3 0,1 0,8 3,2 72 39 98 53 WSW 1,1 0 0,4
12.01.2021 07:00:00 -6,3 -7,1 -0,4 0,1 0,8 3,2 75 40 93 50 W 0,6 0 0,3
12.01.2021 06:00:00 -6,6 -7,4 -0,4 0,1 0,8 3,2 69 37 95 52 W 0,2 0 0,0
12.01.2021 05:00:00 -6,6 -7,5 -0,4 0,1 0,8 3,2 66 36 90 49 W 0,1 0 0,0
12.01.2021 04:00:00 -6,0 -6,8 -0,5 0,1 0,8 3,2 64 34 89 48 W 0,1 0 0,0
12.01.2021 03:00:00 -5,9 -6,6 -0,5 0,1 0,8 3,2 67 36 97 53 W 0,1 0 0,1
12.01.2021 02:00:00 -6,0 -6,7 -0,5 0,1 0,8 3,2 61 33 86 47 W 0,1 0 0,0
12.01.2021 01:00:00 -7,0 -7,8 -0,5 0,1 0,8 3,2 64 35 85 46 W 0,2 0 0,3
12.01.2021 00:00:00 -7,4 -8,4 -0,5 0,1 0,8 3,2 67 36 85 46 WSW 11 0 0,3
11.01.2021 23:00:00 -7,2 -8,4 -0,5 0,1 0,8 3,2 59 32 74 40 WSW 20 0 0,0
11.01.2021 22:00:00 -6,5 -7,5 -0,6 0,1 0,8 3,3 59 32 72 39 WSW 10 0 0,0
11.01.2021 21:00:00 -6,3 -7,1 -0,7 0,1 0,8 3,3 58 32 69 37 WSW 18 0 0,0
11.01.2021 20:00:00 -6,9 -7,9 -0,8 0,1 0,8 3,3 55 30 61 33 W 26 0 0,0
11.01.2021 19:00:00 -7,2 -8,2 -0,8 0,1 0,8 3,3 39 21 48 26 WSW 39 0 0,0
11.01.2021 18:00:00 -7,4 -8,4 -0,8 0,1 0,8 3,3 34 18 41 22 WSW 25 0 0,0
11.01.2021 17:00:00 -6,8 -7,7 -0,9 0,1 0,8 3,3 29 16 44 24 WSW 43 0 0,0
11.01.2021 16:00:00 -7,6 -8,5 -0,9 0,1 0,8 3,3 37 20 45 24 WSW 29 0 0,0
11.01.2021 15:00:00 -7,5 -8,5 -1,0 0,1 0,8 3,3 35 19 51 28 WSW 10 5 0,0
11.01.2021 14:00:00 -7,0 -8,2 -1,0 0,1 0,8 3,3 45 24 53 29 WSW 47 39 0,0
11.01.2021 13:00:00 -6,9 -8,0 -1,1 0,1 0,8 3,3 41 22 52 28 W 39 59 0,0
11.01.2021 12:00:00 -6,8 -7,9 -1,1 0,1 0,8 3,3 31 17 45 24 WSW 19 60 0,0
11.01.2021 11:00:00 -7,4 -8,6 -1,2 0,1 0,8 3,3 34 18 42 23 WSW 66 60 0,0
11.01.2021 10:00:00 -8,1 -9,1 -1,2 0,1 0,8 3,3 31 17 40 22 WSW 52 60 0,0
11.01.2021 09:00:00 -8,8 -9,8 -1,2 0,1 0,8 3,3 32 17 40 22 WSW 49 43 0,0
11.01.2021 08:00:00 -9,5 -10,6 -1,2 0,1 0,8 3,3 34 18 43 23 WSW 62 0 0,0
11.01.2021 07:00:00 -9,5 -10,5 -1,1 0,1 0,8 3,3 36 20 43 23 W 31 0 0,0
11.01.2021 06:00:00 -9,2 -10,3 -1,2 0,1 0,8 3,3 33 18 39 21 WSW 61 0 0,0
11.01.2021 05:00:00 -9,0 -10,1 -1,2 0,1 0,8 3,3 31 17 36 20 WSW 48 0 0,0
11.01.2021 04:00:00 -8,7 -9,7 -1,2 0,1 0,8 3,3 29 16 35 19 WSW 29 0 0,0
11.01.2021 03:00:00 -8,4 -9,3 -1,2 0,1 0,8 3,3 30 16 34 18 WSW 7 0 0,0
11.01.2021 02:00:00 -8,5 -9,4 -1,1 0,1 0,8 3,3 29 16 32 18 WSW 3,1 0 0,0
11.01.2021 01:00:00 -8,6 -9,7 -1,1 0,1 0,8 3,3 26 14 29 16 WSW 61 0 0,0
11.01.2021 00:00:00 -8,7 -9,7 -1,1 0,1 0,8 3,3 23 12 24 13 WSW 75 0 0,0
10.01.2021 23:00:00 -8,7 -9,6 -1,1 0,1 0,8 3,3 21 11 22 12 WSW 58 0 0,0
10.01.2021 22:00:00 -8,2 -9,1 -1,0 0,1 0,8 3,3 19 10 21 11 WSW 53 0 0,0
10.01.2021 21:00:00 -8,2 -9,1 -1,0 0,1 0,8 3,3 13 7 15 8 SW 37 0 0,0
10.01.2021 20:00:00 -7,9 -8,7 -0,9 0,1 0,8 3,3 5 3 12 7 SW 34 0 0,0
10.01.2021 19:00:00 -7,7 -8,6 -0,9 0,1 0,8 3,3 11 6 13 7 SW 34 0 0,0
10.01.2021 18:00:00 -7,2 -7,9 -0,9 0,1 0,8 3,3 6 3 9 5 S 30 0 0,0
10.01.2021 17:00:00 -6,5 -7,1 -0,8 0,1 0,8 3,3 5 3 6 3 SSE 37 2 0,0
10.01.2021 16:00:00 -6,0 -6,8 -0,8 0,1 0,8 3,3 3 2 5 3 SE 32 3 0,0
10.01.2021 15:00:00 -5,0 -5,4 -0,8 0,1 0,8 3,3 3 2 10 5 SSE 25 0 0,2
10.01.2021 14:00:00 -4,8 -5,7 -0,8 0,1 0,8 3,3 4 2 5 3 ESE 6 1 0,0
10.01.2021 13:00:00 -3,3 -3,7 -0,9 0,1 0,8 3,3 2 1 12 7 WSW 44 30 0,0
10.01.2021 12:00:00 -3,6 -3,9 -0,8 0,1 0,8 3,3 10 5 13 7 SE 57 60 0,0
10.01.2021 11:00:00 -5,4 -6,0 -0,9 0,1 0,8 3,3 8 4 13 7 ESE 46 50 0,0
10.01.2021 10:00:00 -5,9 -6,4 -0,9 0,1 0,8 3,3 7 4 16 8 NE 50 30 0,0
10.01.2021 09:00:00 -7,1 -7,7 -0,9 0,1 0,8 3,3 14 8 19 10 NNE 46 0 0,0
10.01.2021 08:00:00 -7,1 -7,7 -0,9 0,1 0,8 3,3 13 7 21 11 N 0,3 0 0,0
10.01.2021 07:00:00 -6,9 -7,4 -0,9 0,1 0,8 3,3 14 8 19 11 N 0,1 0 0,0
10.01.2021 06:00:00 -6,9 -7,4 -0,8 0,1 0,8 3,3 13 7 26 14 N 0,2 0 0,0
10.01.2021 05:00:00 -6,8 -7,5 -0,8 0,1 0,8 3,3 21 12 28 15 NNW 0,2 0 0,0

tt = temperature
td = dewpoint
tt 5cm = temperature 5cm
tt -5cm = temperature -5cm
tt -20cm = temperature -20cm
tt -100cm = temperature -100cm
ff = wind speed
fx = gusts
dd = wind direction
vv = visibility
sd = sunshine duration
rr = precipitation

Next stations